Time;durP1;ratioP1;P1;durP2;ratioP2;P2;SDS_P1;SDS_P2;PMS_P1;PMS_P2;Temp;Humidity;BMP_temperature;BMP_pressure;BME280_temperature;BME280_humidity;BME280_pressure;Samples;Min_cycle;Max_cycle;Signal;HPM_P1;HPM_P2
2021/01/06 00:02:24;;;;;;;6.38;5.30;;;8.20;99.90;;;;;;5032881;28;20203;-78
2021/01/06 00:04:50;;;;;;;6.50;5.35;;;8.30;99.90;;;;;;5032848;28;20206;-78
2021/01/06 00:07:16;;;;;;;5.38;4.88;;;8.30;99.90;;;;;;5032955;28;20202;-78
2021/01/06 00:09:43;;;;;;;6.18;5.32;;;8.30;99.90;;;;;;5032776;28;20195;-78
2021/01/06 00:12:09;;;;;;;5.32;4.82;;;8.40;99.90;;;;;;5032960;28;20275;-78
2021/01/06 00:14:36;;;;;;;6.90;5.05;;;8.30;99.90;;;;;;5032936;28;20257;-78
2021/01/06 00:17:02;;;;;;;5.03;4.53;;;8.30;99.90;;;;;;5032508;28;20207;-78
2021/01/06 00:19:29;;;;;;;6.20;5.03;;;8.40;99.90;;;;;;5032681;28;20204;-78
2021/01/06 00:21:55;;;;;;;5.35;4.85;;;8.20;99.90;;;;;;5032841;28;20199;-78
2021/01/06 00:24:22;;;;;;;5.15;4.65;;;8.30;99.90;;;;;;5032600;28;20203;-78
2021/01/06 00:26:48;;;;;;;5.22;4.72;;;8.40;99.90;;;;;;5035532;28;20199;-78
2021/01/06 00:29:14;;;;;;;6.20;5.28;;;8.30;99.90;;;;;;5036151;28;20238;-78
2021/01/06 00:31:42;;;;;;;5.63;4.85;;;8.20;99.90;;;;;;5036071;28;20257;-78
2021/01/06 00:34:09;;;;;;;6.78;5.47;;;8.30;99.90;;;;;;5036281;28;20196;-78
2021/01/06 00:36:37;;;;;;;6.05;5.47;;;8.30;99.90;;;;;;5036254;28;20199;-78
2021/01/06 00:39:05;;;;;;;5.95;5.35;;;8.30;99.90;;;;;;5035994;28;20244;-78
2021/01/06 00:41:32;;;;;;;5.22;4.75;;;8.40;99.90;;;;;;5035965;28;20203;-78
2021/01/06 00:44:01;;;;;;;5.07;4.18;;;8.40;99.90;;;;;;5035924;28;20195;-78
2021/01/06 00:46:30;;;;;;;5.30;4.20;;;8.40;99.90;;;;;;5035811;28;20226;-78
2021/01/06 00:48:56;;;;;;;4.70;4.20;;;8.40;99.90;;;;;;5036103;28;20210;-78
2021/01/06 00:51:23;;;;;;;5.25;4.75;;;8.50;99.90;;;;;;5035964;28;20635;-78
2021/01/06 00:53:50;;;;;;;5.30;4.40;;;8.40;99.90;;;;;;5035707;28;20210;-78
2021/01/06 00:56:16;;;;;;;5.63;5.13;;;8.30;99.90;;;;;;5035726;28;20196;-78
2021/01/06 00:58:42;;;;;;;4.50;4.10;;;8.40;99.90;;;;;;5035531;28;20223;-78
2021/01/06 01:01:08;;;;;;;4.57;4.15;;;8.50;99.90;;;;;;5035827;28;20196;-78
2021/01/06 01:03:35;;;;;;;5.25;4.70;;;8.50;99.90;;;;;;5035559;28;20195;-78
2021/01/06 01:06:01;;;;;;;4.97;4.47;;;8.40;99.90;;;;;;5035651;28;20199;-78
2021/01/06 01:08:27;;;;;;;5.30;4.80;;;8.40;99.90;;;;;;5035542;28;20191;-78
2021/01/06 01:10:54;;;;;;;4.80;3.85;;;8.40;99.90;;;;;;5035422;28;20211;-78
2021/01/06 01:13:22;;;;;;;4.93;4.47;;;8.20;99.90;;;;;;5035485;28;20548;-78
2021/01/06 01:15:50;;;;;;;5.70;4.63;;;8.20;99.90;;;;;;5035241;28;20221;-78
2021/01/06 01:18:19;;;;;;;4.68;4.28;;;8.30;99.90;;;;;;5035270;28;20227;-78
2021/01/06 01:20:47;;;;;;;5.22;4.28;;;8.40;99.90;;;;;;5035194;28;20646;-78
2021/01/06 01:23:16;;;;;;;4.63;4.22;;;8.50;99.90;;;;;;5035315;28;20195;-78
2021/01/06 01:25:42;;;;;;;5.55;4.47;;;8.40;99.90;;;;;;5035242;28;20290;-78
2021/01/06 01:28:11;;;;;;;8.32;3.65;;;8.50;99.90;;;;;;5035110;28;20220;-78
2021/01/06 01:30:37;;;;;;;5.30;4.05;;;8.40;99.90;;;;;;5035176;28;20266;-78
2021/01/06 01:33:04;;;;;;;4.05;3.75;;;8.50;99.90;;;;;;5034722;28;20296;-78
2021/01/06 01:35:31;;;;;;;5.13;4.18;;;8.40;99.90;;;;;;5034988;28;20198;-78
2021/01/06 01:37:59;;;;;;;5.32;4.78;;;8.40;99.90;;;;;;5033851;28;20220;-78
2021/01/06 01:40:29;;;;;;;5.10;4.60;;;8.50;99.90;;;;;;5034791;28;20188;-78
2021/01/06 01:42:58;;;;;;;6.38;4.60;;;8.50;99.90;;;;;;5034870;28;20206;-78
2021/01/06 01:45:28;;;;;;;4.53;4.05;;;8.50;99.90;;;;;;5034867;28;20199;-78
2021/01/06 01:48:01;;;;;;;5.38;4.60;;;8.40;99.90;;;;;;5034779;28;20199;-78
2021/01/06 01:50:28;;;;;;;5.20;4.35;;;8.40;99.90;;;;;;5034700;28;20195;-79
2021/01/06 01:53:01;;;;;;;5.13;4.63;;;8.50;99.90;;;;;;5034717;28;20203;-78
2021/01/06 01:55:29;;;;;;;5.20;4.70;;;8.40;99.90;;;;;;5034589;28;20204;-78
2021/01/06 01:58:00;;;;;;;5.05;4.55;;;8.40;99.90;;;;;;5034622;28;20293;-78
2021/01/06 02:00:32;;;;;;;4.82;4.43;;;8.50;99.90;;;;;;5034577;28;20258;-78
2021/01/06 02:03:07;;;;;;;5.07;4.57;;;8.50;99.90;;;;;;5034486;28;20326;-78
2021/01/06 02:05:41;;;;;;;5.10;4.25;;;8.40;99.90;;;;;;5034353;28;20221;-78
2021/01/06 02:08:11;;;;;;;7.20;4.75;;;8.40;99.90;;;;;;5034347;28;20195;-78
2021/01/06 02:10:45;;;;;;;4.45;4.10;;;8.50;99.90;;;;;;5034275;28;20264;-78
2021/01/06 02:13:17;;;;;;;4.85;4.40;;;8.40;99.90;;;;;;5034339;28;20203;-78
2021/01/06 02:15:48;;;;;;;4.45;4.03;;;8.30;99.90;;;;;;5034278;28;20195;-78
2021/01/06 02:18:15;;;;;;;4.60;4.20;;;8.20;99.90;;;;;;5034303;28;20679;-78
2021/01/06 02:20:56;;;;;;;5.10;3.92;;;8.20;99.90;;;;;;5034283;28;20203;-78
2021/01/06 02:23:23;;;;;;;5.78;4.80;;;8.40;99.90;;;;;;5034191;28;20196;-79
2021/01/06 02:25:50;;;;;;;6.32;5.18;;;8.10;99.90;;;;;;5034097;28;20200;-78
2021/01/06 02:28:16;;;;;;;7.00;4.60;;;8.20;99.90;;;;;;5033988;28;20219;-78
2021/01/06 02:30:42;;;;;;;5.32;4.82;;;8.10;99.90;;;;;;5034160;28;20195;-78
2021/01/06 02:33:08;;;;;;;7.00;5.30;;;8.10;99.90;;;;;;5033684;28;20235;-78
2021/01/06 02:35:35;;;;;;;6.40;5.00;;;8.20;99.90;;;;;;5033811;28;20196;-78
2021/01/06 02:38:01;;;;;;;4.70;4.30;;;8.20;99.90;;;;;;5033745;28;20226;-78
2021/01/06 02:40:29;;;;;;;5.50;4.70;;;8.20;99.90;;;;;;5033921;28;20195;-78
2021/01/06 02:42:55;;;;;;;4.85;4.15;;;8.30;99.90;;;;;;5033713;28;20618;-78
2021/01/06 02:45:21;;;;;;;5.30;4.55;;;8.20;99.90;;;;;;5033934;28;20542;-78
2021/01/06 02:47:49;;;;;;;6.03;4.07;;;8.20;99.90;;;;;;5033117;28;20256;-78
2021/01/06 02:50:19;;;;;;;5.28;4.78;;;8.30;99.90;;;;;;5033762;28;20199;-78
2021/01/06 02:52:50;;;;;;;5.25;4.75;;;8.30;99.90;;;;;;5033713;28;20200;-78
2021/01/06 02:55:17;;;;;;;4.82;4.25;;;8.30;99.90;;;;;;5033512;28;20200;-78
2021/01/06 02:57:46;;;;;;;4.78;4.38;;;8.30;99.90;;;;;;5033335;28;20238;-78
2021/01/06 03:00:16;;;;;;;6.68;5.60;;;8.20;99.90;;;;;;5033431;28;20654;-78
2021/01/06 03:02:43;;;;;;;5.20;4.57;;;8.30;99.90;;;;;;5033378;28;20238;-78
2021/01/06 03:05:18;;;;;;;5.60;5.03;;;8.30;99.90;;;;;;5033485;28;20192;-78
2021/01/06 03:07:44;;;;;;;4.88;3.97;;;8.10;99.90;;;;;;5033512;28;20202;-78
2021/01/06 03:10:15;;;;;;;5.72;5.15;;;8.20;99.90;;;;;;5033455;28;20524;-78
2021/01/06 03:12:41;;;;;;;6.35;5.00;;;8.30;99.90;;;;;;5033386;28;20665;-78
2021/01/06 03:15:10;;;;;;;4.82;4.25;;;8.30;99.90;;;;;;5033317;28;20206;-78
2021/01/06 03:17:36;;;;;;;6.80;5.50;;;8.30;99.90;;;;;;5033195;28;20226;-78
2021/01/06 03:20:09;;;;;;;5.53;4.60;;;8.20;99.90;;;;;;5033250;28;20545;-78
2021/01/06 03:22:39;;;;;;;6.00;5.40;;;8.20;99.90;;;;;;5033143;28;20222;-78
2021/01/06 03:25:09;;;;;;;6.15;5.40;;;8.20;99.90;;;;;;5033310;28;20196;-79
2021/01/06 03:27:37;;;;;;;4.95;4.45;;;8.20;99.90;;;;;;5033124;28;20592;-78
2021/01/06 03:30:06;;;;;;;6.22;5.65;;;8.20;99.90;;;;;;5033199;28;20206;-78
2021/01/06 03:32:43;;;;;;;9.18;6.43;;;8.30;99.90;;;;;;5032935;28;20694;-78
2021/01/06 03:35:17;;;;;;;8.68;7.13;;;8.20;99.90;;;;;;5033337;28;20260;-78
2021/01/06 03:37:49;;;;;;;7.68;6.75;;;8.20;99.90;;;;;;5033053;28;20690;-79
2021/01/06 03:40:21;;;;;;;10.90;8.27;;;8.10;99.90;;;;;;5033168;28;20196;-78
2021/01/06 03:42:48;;;;;;;11.02;7.80;;;7.80;99.90;;;;;;5033014;28;20592;-78
2021/01/06 03:45:18;;;;;;;12.27;7.85;;;7.80;99.90;;;;;;5032963;28;20199;-78
2021/01/06 03:47:53;;;;;;;9.93;7.68;;;7.90;99.90;;;;;;5033036;28;20200;-78
2021/01/06 03:50:27;;;;;;;9.43;7.80;;;7.90;99.90;;;;;;5032973;28;20195;-78
2021/01/06 03:53:05;;;;;;;11.40;9.77;;;7.90;99.90;;;;;;5032945;28;20195;-78
2021/01/06 03:55:45;;;;;;;12.98;9.32;;;7.80;99.90;;;;;;5032908;28;20654;-78
2021/01/06 03:58:25;;;;;;;11.95;10.43;;;7.90;99.90;;;;;;5032718;28;20227;-78
2021/01/06 04:00:55;;;;;;;15.30;11.07;;;7.90;99.90;;;;;;5034453;28;20674;-78
2021/01/06 04:03:29;;;;;;;13.20;10.07;;;7.90;99.90;;;;;;5036633;28;20250;-77
2021/01/06 04:05:58;;;;;;;13.77;10.88;;;7.80;99.90;;;;;;5036916;28;20203;-78
2021/01/06 04:08:38;;;;;;;12.50;10.38;;;7.80;99.90;;;;;;5036739;28;20199;-79
2021/01/06 04:11:07;;;;;;;12.38;11.07;;;7.80;99.90;;;;;;5036867;28;20206;-78
2021/01/06 04:13:33;;;;;;;13.23;10.98;;;7.70;99.90;;;;;;5036789;28;20265;-78
2021/01/06 04:16:00;;;;;;;11.50;9.38;;;7.80;99.90;;;;;;5036772;28;20197;-78
2021/01/06 04:18:27;;;;;;;12.18;8.77;;;7.70;99.90;;;;;;5036427;28;20242;-79
2021/01/06 04:20:53;;;;;;;10.15;7.95;;;7.80;99.90;;;;;;5036383;28;20249;-78
2021/01/06 04:23:20;;;;;;;10.18;7.50;;;7.80;99.90;;;;;;5036383;28;20214;-78
2021/01/06 04:25:48;;;;;;;15.75;9.65;;;7.80;99.90;;;;;;5036402;28;20209;-78
2021/01/06 04:28:16;;;;;;;12.10;8.90;;;7.70;99.90;;;;;;5036234;28;20250;-78
2021/01/06 04:30:45;;;;;;;11.38;9.45;;;7.80;99.90;;;;;;5036329;28;20200;-78
2021/01/06 04:33:15;;;;;;;11.90;9.25;;;7.90;99.90;;;;;;5036093;28;20231;-78
2021/01/06 04:35:42;;;;;;;11.32;8.20;;;7.90;99.90;;;;;;5036088;28;20288;-78
2021/01/06 04:38:13;;;;;;;13.90;8.50;;;8.00;99.90;;;;;;5035879;28;20226;-79
2021/01/06 04:40:42;;;;;;;11.55;9.10;;;7.90;99.90;;;;;;5036222;28;20203;-78
2021/01/06 04:43:16;;;;;;;11.05;8.68;;;7.90;99.90;;;;;;5036121;28;20207;-78
2021/01/06 04:45:50;;;;;;;9.27;8.27;;;7.90;99.90;;;;;;5036091;28;20202;-79
2021/01/06 04:48:36;;;;;;;10.00;7.82;;;7.80;99.90;;;;;;5035889;28;20226;-78
2021/01/06 04:51:28;;;;;;;7.97;7.18;;;7.80;99.90;;;;;;5035835;28;20204;-78
2021/01/06 04:54:12;;;;;;;10.32;8.55;;;7.80;99.90;;;;;;5035867;28;20258;-78
2021/01/06 04:56:54;;;;;;;9.80;8.13;;;7.80;99.90;;;;;;5035840;28;20652;-78
2021/01/06 04:59:37;;;;;;;8.77;7.10;;;7.80;99.90;;;;;;5035785;28;20231;-78
2021/01/06 05:02:18;;;;;;;9.55;8.60;;;7.80;99.90;;;;;;5035561;28;20253;-79
2021/01/06 05:05:13;;;;;;;8.50;7.43;;;7.80;99.90;;;;;;5035708;28;20530;-79
2021/01/06 05:07:54;;;;;;;10.48;8.07;;;7.90;99.90;;;;;;5035549;28;20195;-78
2021/01/06 05:10:28;;;;;;;10.52;8.20;;;7.90;99.90;;;;;;5035569;28;20195;-78
2021/01/06 05:13:01;;;;;;;10.88;9.27;;;7.90;99.90;;;;;;5035239;28;20214;-78
2021/01/06 05:15:38;;;;;;;9.90;8.90;;;7.90;99.90;;;;;;5035523;28;20195;-78
2021/01/06 05:18:06;;;;;;;10.05;8.55;;;7.90;99.90;;;;;;5035349;28;20227;-78
2021/01/06 05:20:33;;;;;;;9.98;8.88;;;7.90;99.90;;;;;;5035312;28;20199;-80
2021/01/06 05:23:01;;;;;;;10.10;8.07;;;7.90;99.90;;;;;;5035142;28;20310;-78
2021/01/06 05:25:28;;;;;;;10.18;7.45;;;8.00;99.90;;;;;;5035334;28;20192;-79
2021/01/06 05:27:54;;;;;;;8.90;7.80;;;8.00;99.90;;;;;;5035126;28;20219;-78
2021/01/06 05:30:24;;;;;;;9.38;8.43;;;7.90;99.90;;;;;;5035248;28;20200;-78
2021/01/06 05:32:55;;;;;;;9.55;8.35;;;8.00;99.90;;;;;;5035087;28;20631;-79
2021/01/06 05:35:25;;;;;;;9.55;8.43;;;7.90;99.90;;;;;;5035138;28;20650;-79
2021/01/06 05:37:54;;;;;;;10.77;7.88;;;7.90;99.90;;;;;;5035081;28;20228;-79
2021/01/06 05:40:22;;;;;;;10.13;8.90;;;7.90;99.90;;;;;;5035194;28;20546;-78
2021/01/06 05:42:51;;;;;;;9.55;8.23;;;7.90;99.90;;;;;;5034894;28;20196;-78
2021/01/06 05:45:20;;;;;;;10.15;8.95;;;8.00;99.90;;;;;;5034956;28;20650;-78
2021/01/06 05:47:51;;;;;;;8.85;7.82;;;8.00;99.90;;;;;;5034911;28;20200;-78
2021/01/06 05:50:20;;;;;;;10.60;8.27;;;8.00;99.90;;;;;;5034744;28;20196;-78
2021/01/06 05:52:57;;;;;;;11.82;9.48;;;8.10;99.90;;;;;;5034705;28;20192;-78
2021/01/06 05:55:25;;;;;;;12.52;9.63;;;8.10;99.90;;;;;;5034914;28;20203;-78
2021/01/06 05:58:02;;;;;;;9.90;8.60;;;8.10;99.90;;;;;;5034633;28;20686;-78
2021/01/06 06:00:45;;;;;;;9.48;8.48;;;8.00;99.90;;;;;;5034520;28;20199;-78
2021/01/06 06:03:38;;;;;;;10.95;9.35;;;8.00;99.90;;;;;;5034594;28;20253;-78
2021/01/06 06:06:32;;;;;;;11.15;9.95;;;7.90;99.90;;;;;;5034533;28;20210;-78
2021/01/06 06:09:05;;;;;;;11.65;9.05;;;7.90;99.90;;;;;;5034517;28;20210;-78
2021/01/06 06:11:53;;;;;;;10.93;9.85;;;7.90;99.90;;;;;;5034477;28;20214;-78
2021/01/06 06:15:04;;;;;;;12.50;10.38;;;8.00;99.90;;;;;;5034339;28;20203;-78
2021/01/06 06:17:45;;;;;;;10.13;8.45;;;8.10;99.90;;;;;;5034355;28;20253;-78
2021/01/06 06:20:29;;;;;;;12.27;9.85;;;8.10;99.90;;;;;;5034055;28;20203;-79
2021/01/06 06:23:19;;;;;;;13.43;9.60;;;8.10;99.90;;;;;;5033492;28;20278;-78
2021/01/06 06:25:57;;;;;;;10.95;8.93;;;8.10;99.90;;;;;;5034153;28;20340;-78
2021/01/06 06:28:28;;;;;;;10.13;8.52;;;8.10;99.90;;;;;;5034056;28;20215;-79
2021/01/06 06:30:57;;;;;;;11.27;9.18;;;8.10;99.90;;;;;;5034167;28;20724;-79
2021/01/06 06:33:28;;;;;;;11.88;10.40;;;8.10;99.90;;;;;;5033867;28;20234;-78
2021/01/06 06:35:55;;;;;;;12.27;9.30;;;8.10;99.90;;;;;;5033958;28;20200;-78
2021/01/06 06:38:36;;;;;;;10.77;9.52;;;8.00;99.90;;;;;;5033824;28;20630;-78
2021/01/06 06:41:05;;;;;;;12.23;10.35;;;8.10;99.90;;;;;;5034134;28;20203;-78
2021/01/06 06:43:41;;;;;;;11.40;9.73;;;8.10;99.90;;;;;;5033713;28;20195;-79
2021/01/06 06:46:22;;;;;;;12.20;10.93;;;8.10;99.90;;;;;;5033849;28;20195;-79
2021/01/06 06:49:12;;;;;;;11.38;10.20;;;8.10;99.90;;;;;;5030714;28;20597;-79
2021/01/06 06:51:43;;;;;;;13.38;10.40;;;8.10;99.90;;;;;;5025280;28;20195;-78
2021/01/06 06:54:15;;;;;;;12.02;9.30;;;8.00;99.90;;;;;;5033198;28;20329;-77
2021/01/06 06:56:48;;;;;;;10.52;8.90;;;8.00;99.90;;;;;;5033545;28;20195;-78
2021/01/06 06:59:21;;;;;;;13.35;8.38;;;8.10;99.90;;;;;;5027166;28;20227;-79
2021/01/06 07:01:48;;;;;;;12.43;9.43;;;8.10;99.90;;;;;;5031169;28;20203;-78
2021/01/06 07:04:20;;;;;;;9.05;8.15;;;8.20;99.90;;;;;;5032969;28;20199;-78
2021/01/06 07:06:55;;;;;;;11.25;9.57;;;8.10;99.90;;;;;;5032812;28;20681;-78
2021/01/06 07:09:28;;;;;;;9.95;8.95;;;8.10;99.90;;;;;;5033015;28;20195;-77
2021/01/06 07:12:02;;;;;;;9.95;8.35;;;8.00;99.90;;;;;;5033036;28;20207;-77
2021/01/06 07:14:31;;;;;;;10.70;7.65;;;8.00;99.90;;;;;;5033154;28;20230;-78
2021/01/06 07:17:05;;;;;;;8.82;7.93;;;7.90;99.90;;;;;;5032777;28;20199;-78
2021/01/06 07:19:35;;;;;;;11.45;8.15;;;7.90;99.90;;;;;;5032705;28;20223;-78
2021/01/06 07:22:20;;;;;;;11.23;9.00;;;8.00;99.90;;;;;;5032881;28;20591;-78
2021/01/06 07:24:52;;;;;;;10.45;9.25;;;8.10;99.90;;;;;;5033037;28;20557;-77
2021/01/06 07:27:19;;;;;;;11.80;9.95;;;8.10;99.90;;;;;;5032864;28;22410;-77
2021/01/06 07:29:50;;;;;;;12.32;9.57;;;8.00;99.90;;;;;;5032820;28;20203;-77
2021/01/06 07:32:18;;;;;;;10.73;8.40;;;8.10;99.90;;;;;;5032607;28;20238;-78
2021/01/06 07:34:49;;;;;;;9.55;8.05;;;8.00;99.90;;;;;;5034192;28;20605;-78
2021/01/06 07:37:30;;;;;;;12.52;8.90;;;8.00;99.90;;;;;;5036702;28;20705;-77
2021/01/06 07:40:00;;;;;;;12.20;8.80;;;8.00;99.90;;;;;;5036855;28;20564;-78
2021/01/06 07:42:38;;;;;;;14.98;9.77;;;8.00;99.90;;;;;;5036897;28;20246;-78
2021/01/06 07:45:36;;;;;;;11.07;7.85;;;8.00;99.90;;;;;;5036675;28;20287;-78
2021/01/06 07:48:28;;;;;;;9.90;8.85;;;8.20;99.90;;;;;;5036440;28;20191;-77
2021/01/06 07:51:04;;;;;;;10.98;9.05;;;8.20;99.90;;;;;;5036655;28;20195;-78
2021/01/06 07:53:38;;;;;;;9.88;8.55;;;8.30;99.90;;;;;;5036684;28;20206;-79
2021/01/06 07:56:15;;;;;;;9.43;7.97;;;8.40;99.90;;;;;;5036469;28;20249;-78
2021/01/06 07:58:45;;;;;;;9.02;6.65;;;8.30;99.90;;;;;;5036540;28;20636;-77
2021/01/06 08:01:20;;;;;;;9.75;8.30;;;8.20;99.90;;;;;;5036755;28;20199;-77
2021/01/06 08:03:50;;;;;;;12.00;9.25;;;8.20;99.90;;;;;;5036270;28;20199;-79
2021/01/06 08:06:20;;;;;;;7.65;6.85;;;8.20;99.90;;;;;;5036225;28;20191;-77
2021/01/06 08:08:48;;;;;;;12.40;8.77;;;8.20;99.90;;;;;;5036383;28;20283;-77
2021/01/06 08:11:17;;;;;;;10.77;8.93;;;8.20;99.90;;;;;;5036533;28;20250;-77
2021/01/06 08:14:00;;;;;;;14.68;8.68;;;8.20;99.90;;;;;;5036238;28;20200;-78
2021/01/06 08:16:35;;;;;;;8.70;7.40;;;8.10;99.90;;;;;;5034238;28;20206;-79
2021/01/06 08:19:13;;;;;;;11.50;8.60;;;8.10;99.90;;;;;;5036129;28;20230;-79
2021/01/06 08:22:00;;;;;;;13.68;9.27;;;8.20;99.90;;;;;;5036199;28;20199;-79
2021/01/06 08:24:36;;;;;;;12.40;9.93;;;8.10;99.90;;;;;;5033020;28;20203;-78
2021/01/06 08:27:04;;;;;;;14.70;9.38;;;8.00;99.90;;;;;;5035696;28;20191;-77
2021/01/06 08:29:34;;;;;;;10.95;9.10;;;8.10;99.90;;;;;;5035985;28;20606;-79
2021/01/06 08:32:06;;;;;;;10.15;8.43;;;8.00;99.90;;;;;;5035841;28;20267;-79
2021/01/06 08:34:34;;;;;;;10.45;8.32;;;8.00;99.90;;;;;;5035887;28;20570;-79
2021/01/06 08:37:07;;;;;;;10.57;7.47;;;7.90;99.90;;;;;;5035694;28;20222;-80
2021/01/06 08:39:36;;;;;;;8.38;7.38;;;8.00;99.90;;;;;;5035760;28;20587;-79
2021/01/06 08:42:12;;;;;;;9.48;8.10;;;8.10;99.90;;;;;;5035799;28;20196;-79
2021/01/06 08:44:42;;;;;;;8.60;7.75;;;8.20;99.90;;;;;;5035564;28;20201;-78
2021/01/06 08:47:12;;;;;;;11.65;8.32;;;8.20;99.90;;;;;;5034891;28;20223;-80
2021/01/06 08:49:40;;;;;;;9.50;8.38;;;8.30;99.90;;;;;;5035621;28;20203;-80
2021/01/06 08:52:21;;;;;;;7.65;6.85;;;8.30;99.90;;;;;;5035419;28;20283;-79
2021/01/06 08:55:06;;;;;;;9.02;8.13;;;8.40;99.90;;;;;;5035698;28;20289;-78
2021/01/06 08:57:34;;;;;;;11.48;8.80;;;8.40;99.90;;;;;;5035119;28;20251;-79
2021/01/06 09:00:34;;;;;;;9.35;8.30;;;8.40;99.90;;;;;;5035440;28;20223;-80
2021/01/06 09:03:11;;;;;;;10.52;8.82;;;8.30;99.90;;;;;;4955061;28;20206;-78
2021/01/06 09:06:02;;;;;;;12.80;9.00;;;8.50;99.90;;;;;;5023340;28;20203;-79
2021/01/06 09:08:32;;;;;;;9.82;8.40;;;8.60;99.90;;;;;;5035270;28;20203;-80
2021/01/06 09:11:25;;;;;;;11.88;8.95;;;8.50;99.90;;;;;;5035490;28;20223;-80
2021/01/06 09:14:02;;;;;;;8.00;7.20;;;8.50;99.90;;;;;;5035181;28;20206;-79
2021/01/06 09:16:39;;;;;;;9.20;7.95;;;8.40;99.90;;;;;;5035005;28;20198;-79
2021/01/06 09:19:13;;;;;;;8.52;7.63;;;8.40;99.90;;;;;;5035136;28;20580;-80
2021/01/06 09:21:41;;;;;;;9.60;7.63;;;8.30;99.90;;;;;;5034949;28;20210;-80
2021/01/06 09:24:12;;;;;;;8.60;7.72;;;8.40;99.90;;;;;;5034482;28;20709;-79
2021/01/06 09:26:41;;;;;;;12.73;8.98;;;8.50;99.90;;;;;;5034873;28;20196;-79
2021/01/06 09:29:14;;;;;;;11.70;7.68;;;8.50;99.90;;;;;;5034719;28;20216;-79
2021/01/06 09:31:43;;;;;;;10.88;9.05;;;8.40;99.90;;;;;;5034444;28;20199;-78
2021/01/06 09:34:14;;;;;;;10.52;8.13;;;8.40;99.90;;;;;;5035166;28;20207;-78
2021/01/06 09:36:43;;;;;;;8.75;7.18;;;8.50;99.90;;;;;;5034608;28;20199;-78
2021/01/06 09:39:17;;;;;;;8.75;7.50;;;8.30;99.90;;;;;;5034453;28;20235;-79
2021/01/06 09:41:45;;;;;;;8.85;7.93;;;8.20;99.90;;;;;;5034459;28;20202;-79
2021/01/06 09:44:12;;;;;;;9.45;7.47;;;8.30;99.90;;;;;;5034567;28;20191;-80
2021/01/06 09:46:49;;;;;;;10.90;9.73;;;8.30;99.90;;;;;;5034116;28;20231;-78
2021/01/06 09:49:22;;;;;;;9.65;8.65;;;8.30;99.90;;;;;;5034597;28;20261;-78
2021/01/06 09:51:53;;;;;;;10.18;8.48;;;8.30;99.90;;;;;;5034542;28;20702;-78
2021/01/06 09:54:21;;;;;;;9.63;8.27;;;8.10;99.90;;;;;;5034497;28;20196;-79
2021/01/06 09:56:47;;;;;;;13.07;8.57;;;8.20;99.90;;;;;;5034243;28;20203;-79
2021/01/06 09:59:23;;;;;;;10.15;9.10;;;8.20;99.90;;;;;;5033075;28;20231;-79
2021/01/06 10:01:57;;;;;;;11.68;9.35;;;8.30;99.90;;;;;;5034125;28;20235;-80
2021/01/06 10:04:28;;;;;;;10.43;8.75;;;8.40;99.90;;;;;;5034288;28;20200;-79
2021/01/06 10:07:03;;;;;;;9.63;8.52;;;8.30;99.90;;;;;;5034017;28;20199;-79
2021/01/06 10:09:35;;;;;;;12.77;9.30;;;8.40;99.90;;;;;;5033527;28;20253;-79
2021/01/06 10:12:34;;;;;;;11.18;8.80;;;8.40;99.90;;;;;;5034254;28;20195;-79
2021/01/06 10:15:20;;;;;;;10.90;8.77;;;8.50;99.90;;;;;;5034106;28;20561;-78
2021/01/06 10:17:57;;;;;;;9.02;8.00;;;8.40;99.90;;;;;;5033784;28;20211;-78
2021/01/06 10:20:32;;;;;;;10.55;8.70;;;8.30;99.90;;;;;;5033738;28;20222;-79
2021/01/06 10:23:07;;;;;;;11.65;8.82;;;8.30;99.90;;;;;;5033769;28;20198;-78
2021/01/06 10:25:41;;;;;;;12.40;8.48;;;8.30;99.90;;;;;;5033779;28;20195;-79
2021/01/06 10:28:30;;;;;;;14.55;10.07;;;8.20;99.90;;;;;;5033692;28;20682;-79
2021/01/06 10:31:06;;;;;;;10.50;9.10;;;8.10;99.90;;;;;;5033820;28;20204;-78
2021/01/06 10:33:32;;;;;;;9.80;8.55;;;8.00;99.90;;;;;;5033985;28;20736;-79
2021/01/06 10:36:13;;;;;;;11.70;9.75;;;8.10;99.90;;;;;;5034022;28;20296;-79
2021/01/06 10:38:49;;;;;;;11.00;9.23;;;8.10;99.90;;;;;;5034047;28;20670;-79
2021/01/06 10:41:28;;;;;;;11.43;9.35;;;8.00;99.90;;;;;;5033820;28;20202;-79
2021/01/06 10:43:55;;;;;;;13.10;9.35;;;7.90;99.90;;;;;;5033880;28;20195;-82
2021/01/06 10:46:46;;;;;;;10.00;8.40;;;8.00;99.90;;;;;;5026413;28;20188;-79
2021/01/06 10:49:36;;;;;;;11.18;8.55;;;7.80;99.90;;;;;;5030976;28;20192;-80
2021/01/06 10:52:17;;;;;;;11.75;7.55;;;7.80;99.90;;;;;;5032583;28;20196;-79
2021/01/06 10:54:52;;;;;;;8.98;7.65;;;7.90;99.90;;;;;;5032044;28;20206;-79
2021/01/06 10:57:25;;;;;;;8.77;7.85;;;7.80;99.90;;;;;;5032934;28;20708;-81
2021/01/06 11:00:19;;;;;;;11.40;9.52;;;7.90;99.90;;;;;;5033582;28;20228;-82
2021/01/06 11:03:13;;;;;;;9.80;7.40;;;7.70;99.90;;;;;;5033462;28;20210;-81
2021/01/06 11:05:44;;;;;;;9.93;8.27;;;7.80;99.90;;;;;;5033492;28;20199;-81
2021/01/06 11:08:42;;;;;;;9.30;8.00;;;7.80;99.90;;;;;;5028991;28;20730;-82
2021/01/06 11:11:24;;;;;;;11.30;9.90;;;7.80;99.90;;;;;;5031396;28;20200;-81
2021/01/06 11:14:06;;;;;;;10.45;8.98;;;7.70;99.90;;;;;;5033272;28;20195;-81
2021/01/06 11:16:41;;;;;;;13.82;8.75;;;7.80;99.90;;;;;;5013503;28;20242;-84
2021/01/06 11:19:46;;;;;;;8.82;7.30;;;7.80;99.90;;;;;;5020238;28;20568;-83
2021/01/06 11:22:38;;;;;;;10.85;7.45;;;7.90;99.90;;;;;;5032805;28;20655;-82
2021/01/06 11:25:22;;;;;;;12.85;8.63;;;7.90;99.90;;;;;;5033125;28;20202;-81
2021/01/06 11:28:08;;;;;;;13.43;8.02;;;7.90;99.90;;;;;;5031723;28;20222;-82
2021/01/06 11:30:36;;;;;;;10.32;8.80;;;7.90;99.90;;;;;;5033214;28;20195;-83
2021/01/06 11:33:20;;;;;;;7.45;5.72;;;8.00;99.90;;;;;;5032811;28;20718;-83
2021/01/06 11:35:50;;;;;;;8.85;7.85;;;8.10;99.90;;;;;;5032901;28;20202;-82
2021/01/06 11:38:48;;;;;;;8.68;6.85;;;8.20;99.90;;;;;;5032602;28;20249;-84
2021/01/06 11:41:16;;;;;;;12.23;7.57;;;8.30;99.90;;;;;;5033003;28;20203;-82
2021/01/06 11:43:57;;;;;;;11.80;8.00;;;8.30;99.90;;;;;;5033307;28;20199;-81
2021/01/06 11:46:47;;;;;;;8.25;7.43;;;8.30;99.90;;;;;;5019788;28;20199;-79
2021/01/06 11:49:24;;;;;;;11.48;8.13;;;8.30;99.90;;;;;;5009605;28;20208;-79
2021/01/06 11:52:23;;;;;;;12.15;7.00;;;8.20;99.90;;;;;;5027302;28;20191;-80
2021/01/06 11:54:53;;;;;;;9.55;8.65;;;8.30;99.90;;;;;;5005955;28;20199;-80
2021/01/06 11:57:30;;;;;;;11.10;8.23;;;8.30;99.90;;;;;;5032175;28;20262;-80
2021/01/06 12:00:13;;;;;;;10.10;8.20;;;8.20;99.90;;;;;;5032202;28;20230;-79
2021/01/06 12:02:44;;;;;;;9.20;6.80;;;8.20;99.90;;;;;;5032123;28;20176;-79
2021/01/06 12:05:19;;;;;;;8.48;7.68;;;8.30;99.90;;;;;;5032293;28;20203;-80
2021/01/06 12:07:58;;;;;;;9.15;6.60;;;8.30;99.90;;;;;;5030766;28;20199;-79
2021/01/06 12:10:28;;;;;;;12.75;7.60;;;8.30;99.90;;;;;;5031724;28;20559;-79
2021/01/06 12:13:14;;;;;;;10.63;8.60;;;8.20;99.90;;;;;;5032075;28;20204;-80
2021/01/06 12:15:45;;;;;;;10.02;7.80;;;8.10;99.90;;;;;;5032089;28;20202;-80
2021/01/06 12:18:26;;;;;;;13.32;8.35;;;8.20;99.90;;;;;;5031982;28;20202;-79
2021/01/06 12:20:53;;;;;;;7.25;6.55;;;8.20;99.90;;;;;;5032069;28;20196;-80
2021/01/06 12:23:35;;;;;;;9.35;7.57;;;8.20;99.90;;;;;;5035618;28;20198;-79
2021/01/06 12:26:02;;;;;;;9.50;7.40;;;8.20;99.90;;;;;;5035672;28;20253;-80
2021/01/06 12:28:35;;;;;;;9.57;8.60;;;8.20;99.90;;;;;;5036024;28;20229;-80
2021/01/06 12:31:10;;;;;;;9.30;7.68;;;8.30;99.90;;;;;;5035523;28;20206;-80
2021/01/06 12:33:45;;;;;;;10.02;7.50;;;8.40;99.90;;;;;;5035359;28;20231;-81
2021/01/06 12:36:23;;;;;;;11.15;7.78;;;8.30;99.90;;;;;;5035731;28;20195;-81
2021/01/06 12:38:52;;;;;;;9.40;7.28;;;8.30;99.90;;;;;;5035211;28;20222;-79
2021/01/06 12:41:20;;;;;;;8.80;7.75;;;8.40;99.90;;;;;;5035611;28;20206;-80
2021/01/06 12:44:05;;;;;;;7.70;6.45;;;8.30;99.90;;;;;;5035356;28;20293;-81
2021/01/06 12:46:38;;;;;;;10.75;7.13;;;8.40;99.90;;;;;;5035666;28;20199;-84
2021/01/06 12:49:42;;;;;;;8.77;7.20;;;8.40;99.90;;;;;;5035955;28;20238;-86
2021/01/06 12:52:30;;;;;;;9.90;7.60;;;8.30;99.90;;;;;;5035453;28;20218;-82
2021/01/06 12:55:05;;;;;;;8.82;6.88;;;8.40;99.90;;;;;;5035976;28;20207;-81
2021/01/06 12:57:42;;;;;;;7.82;6.90;;;8.30;99.90;;;;;;5034975;28;20238;-80
2021/01/06 13:00:35;;;;;;;10.88;6.57;;;8.30;99.90;;;;;;5034973;28;20261;-81
2021/01/06 13:03:24;;;;;;;14.18;8.27;;;8.20;99.90;;;;;;5035022;28;20199;-81
2021/01/06 13:05:55;;;;;;;8.80;7.68;;;8.30;99.90;;;;;;5034746;28;20191;-81
2021/01/06 13:08:36;;;;;;;8.20;7.40;;;8.60;99.90;;;;;;5034981;28;20200;-85
2021/01/06 13:11:18;;;;;;;9.77;8.02;;;8.50;99.90;;;;;;5035484;28;20696;-81
2021/01/06 13:13:46;;;;;;;8.48;6.95;;;8.60;99.90;;;;;;5034729;28;20199;-80
2021/01/06 13:16:25;;;;;;;118.68;83.97;;;8.70;99.90;;;;;;5034935;28;20200;-80
2021/01/06 13:19:13;;;;;;;11.05;9.70;;;8.70;99.90;;;;;;5034678;28;20219;-81
2021/01/06 13:21:43;;;;;;;7.50;6.75;;;8.60;99.90;;;;;;5033669;28;20191;-81
2021/01/06 13:24:13;;;;;;;12.07;7.03;;;8.60;99.90;;;;;;5034473;28;20203;-81
2021/01/06 13:26:42;;;;;;;9.40;7.88;;;8.70;99.90;;;;;;5034989;28;20220;-81
2021/01/06 13:29:26;;;;;;;9.05;7.20;;;8.70;99.90;;;;;;5034803;28;20199;-81